Time;durP1;ratioP1;P1;durP2;ratioP2;P2;SDS_P1;SDS_P2;PMS_P1;PMS_P2;Temp;Humidity;BMP_temperature;BMP_pressure;BME280_temperature;BME280_humidity;BME280_pressure;Samples;Min_cycle;Max_cycle;Signal;HPM_P1;HPM_P2
2024/01/18 00:02:22;;;;;;;5.15;2.05;;;;;;;;;;5011699;28;20061;-64
2024/01/18 00:04:48;;;;;;;5.47;1.90;;;;;;;;;;5012226;28;20031;-64
2024/01/18 00:07:14;;;;;;;5.53;1.98;;;;;;;;;;5009729;28;20029;-64
2024/01/18 00:09:40;;;;;;;4.85;2.10;;;;;;;;;;5010631;28;20116;-65
2024/01/18 00:12:06;;;;;;;7.75;2.03;;;;;;;;;;5010983;28;20045;-65
2024/01/18 00:14:32;;;;;;;5.68;1.50;;;;;;;;;;5011633;28;20029;-65
2024/01/18 00:16:58;;;;;;;7.38;1.63;;;;;;;;;;5011467;28;20049;-65
2024/01/18 00:19:24;;;;;;;4.80;1.30;;;;;;;;;;5011304;28;20065;-65
2024/01/18 00:21:50;;;;;;;5.60;1.15;;;;;;;;;;4994000;28;20041;-65
2024/01/18 00:24:17;;;;;;;5.38;1.75;;;;;;;;;;5008951;28;20029;-65
2024/01/18 00:26:43;;;;;;;5.05;1.58;;;;;;;;;;5010892;28;20072;-65
2024/01/18 00:29:09;;;;;;;6.25;2.10;;;;;;;;;;4994365;28;20811;-65
2024/01/18 00:31:35;;;;;;;10.05;2.08;;;;;;;;;;5010324;28;21408;-66
2024/01/18 00:34:01;;;;;;;4.80;1.30;;;;;;;;;;5011342;28;20813;-65
2024/01/18 00:36:28;;;;;;;7.57;1.23;;;;;;;;;;5011259;28;20045;-65
2024/01/18 00:38:54;;;;;;;9.95;1.30;;;;;;;;;;5011416;28;20132;-65
2024/01/18 00:41:20;;;;;;;3.63;1.10;;;;;;;;;;5011542;28;21401;-65
2024/01/18 00:43:47;;;;;;;2.47;0.90;;;;;;;;;;5010229;28;20051;-65
2024/01/18 00:46:14;;;;;;;4.85;1.00;;;;;;;;;;5012050;28;20033;-65
2024/01/18 00:48:40;;;;;;;4.22;1.38;;;;;;;;;;5011304;28;20029;-65
2024/01/18 00:51:06;;;;;;;3.42;0.90;;;;;;;;;;4993624;28;20130;-66
2024/01/18 00:53:32;;;;;;;4.53;0.85;;;;;;;;;;5009860;28;20048;-65
2024/01/18 00:55:58;;;;;;;5.60;0.98;;;;;;;;;;5011229;28;20040;-65
2024/01/18 00:58:24;;;;;;;7.72;1.35;;;;;;;;;;5011189;28;20041;-65
2024/01/18 01:00:50;;;;;;;6.32;3.30;;;;;;;;;;5009430;28;20032;-65
2024/01/18 01:03:16;;;;;;;7.20;1.17;;;;;;;;;;5011149;28;21670;-66
2024/01/18 01:05:42;;;;;;;5.75;1.02;;;;;;;;;;5011269;28;20065;-65
2024/01/18 01:08:08;;;;;;;4.85;1.30;;;;;;;;;;5011323;28;20044;-65
2024/01/18 01:10:34;;;;;;;7.32;1.40;;;;;;;;;;4994785;28;20045;-65
2024/01/18 01:13:00;;;;;;;6.15;1.10;;;;;;;;;;5011525;28;20045;-65
2024/01/18 01:15:26;;;;;;;4.50;0.90;;;;;;;;;;5010959;28;20068;-65
2024/01/18 01:17:52;;;;;;;7.10;1.48;;;;;;;;;;5011654;28;20048;-65
2024/01/18 01:20:19;;;;;;;4.35;1.35;;;;;;;;;;5011896;28;20040;-65
2024/01/18 01:22:45;;;;;;;5.82;1.00;;;;;;;;;;5013600;28;20036;-65
2024/01/18 01:25:12;;;;;;;2.30;0.70;;;;;;;;;;5014183;28;20140;-66
2024/01/18 01:27:38;;;;;;;5.63;0.80;;;;;;;;;;5015133;28;20072;-66
2024/01/18 01:30:04;;;;;;;4.80;1.13;;;;;;;;;;5014113;28;20037;-66
2024/01/18 01:32:30;;;;;;;6.22;0.90;;;;;;;;;;5014272;28;20036;-66
2024/01/18 01:34:56;;;;;;;5.50;1.23;;;;;;;;;;5013830;28;20036;-66
2024/01/18 01:37:22;;;;;;;2.85;0.70;;;;;;;;;;5014501;28;20103;-65
2024/01/18 01:39:48;;;;;;;3.20;0.82;;;;;;;;;;5013431;28;20479;-66
2024/01/18 01:42:14;;;;;;;5.68;1.40;;;;;;;;;;5014204;28;20029;-66
2024/01/18 01:44:40;;;;;;;8.35;1.33;;;;;;;;;;5013460;28;20496;-65
2024/01/18 01:47:06;;;;;;;5.97;0.75;;;;;;;;;;5013309;28;20513;-66
2024/01/18 01:49:32;;;;;;;4.43;0.85;;;;;;;;;;5013878;28;20041;-66
2024/01/18 01:52:00;;;;;;;3.92;0.98;;;;;;;;;;5013023;28;20041;-65
2024/01/18 01:54:29;;;;;;;5.28;1.02;;;;;;;;;;5011865;28;20045;-66
2024/01/18 01:56:56;;;;;;;7.88;2.15;;;;;;;;;;5014046;28;20155;-66
2024/01/18 01:59:22;;;;;;;4.07;0.82;;;;;;;;;;5013778;28;20072;-66
2024/01/18 02:01:48;;;;;;;7.90;1.13;;;;;;;;;;5013324;28;21824;-66
2024/01/18 02:04:15;;;;;;;5.00;1.17;;;;;;;;;;5014630;28;20144;-65
2024/01/18 02:06:41;;;;;;;4.05;0.80;;;;;;;;;;4996393;28;20037;-66
2024/01/18 02:09:08;;;;;;;5.13;1.25;;;;;;;;;;5010493;28;20729;-66
2024/01/18 02:11:35;;;;;;;6.20;1.30;;;;;;;;;;4996888;28;20627;-66
2024/01/18 02:14:01;;;;;;;4.32;0.80;;;;;;;;;;5012378;28;20504;-66
2024/01/18 02:16:27;;;;;;;4.47;0.80;;;;;;;;;;5012739;28;20060;-66
2024/01/18 02:18:53;;;;;;;3.55;0.82;;;;;;;;;;5013401;28;20041;-66
2024/01/18 02:21:19;;;;;;;4.57;1.00;;;;;;;;;;5013331;28;20041;-66
2024/01/18 02:23:48;;;;;;;3.75;0.77;;;;;;;;;;4995931;28;20033;-66
2024/01/18 02:26:14;;;;;;;4.18;0.80;;;;;;;;;;5012370;28;20546;-66
2024/01/18 02:28:54;;;;;;;5.45;1.00;;;;;;;;;;5012794;28;20032;-66
2024/01/18 02:31:20;;;;;;;2.58;0.85;;;;;;;;;;5012617;28;20060;-66
2024/01/18 02:33:46;;;;;;;3.35;0.82;;;;;;;;;;5012519;28;20033;-66
2024/01/18 02:36:12;;;;;;;2.83;0.70;;;;;;;;;;5013833;28;20063;-66
2024/01/18 02:38:38;;;;;;;4.50;0.90;;;;;;;;;;5013529;28;20043;-66
2024/01/18 02:41:04;;;;;;;4.43;1.10;;;;;;;;;;5012364;28;20179;-66
2024/01/18 02:43:31;;;;;;;4.32;0.90;;;;;;;;;;5013313;28;20093;-66
2024/01/18 02:45:57;;;;;;;4.40;0.90;;;;;;;;;;5012538;28;20672;-66
2024/01/18 02:48:23;;;;;;;4.45;0.98;;;;;;;;;;5012876;28;21188;-66
2024/01/18 02:50:49;;;;;;;5.75;1.08;;;;;;;;;;4996601;28;20114;-66
2024/01/18 02:53:15;;;;;;;5.22;1.00;;;;;;;;;;5013170;28;20033;-66
2024/01/18 02:55:41;;;;;;;2.88;0.88;;;;;;;;;;5012858;28;20068;-66
2024/01/18 02:58:07;;;;;;;2.88;0.82;;;;;;;;;;5012211;28;20122;-66
2024/01/18 03:00:34;;;;;;;3.22;0.93;;;;;;;;;;5013238;28;21680;-66
2024/01/18 03:03:00;;;;;;;6.57;1.10;;;;;;;;;;5013096;28;20029;-66
2024/01/18 03:05:26;;;;;;;6.95;1.02;;;;;;;;;;5012406;28;20033;-66
2024/01/18 03:07:52;;;;;;;1.48;0.50;;;;;;;;;;5011538;28;20037;-66
2024/01/18 03:10:18;;;;;;;4.85;0.80;;;;;;;;;;5013193;28;20041;-66
2024/01/18 03:12:44;;;;;;;4.75;0.77;;;;;;;;;;5012038;28;20043;-66
2024/01/18 03:15:10;;;;;;;6.97;0.55;;;;;;;;;;5012374;28;20075;-66
2024/01/18 03:17:36;;;;;;;4.57;0.65;;;;;;;;;;5013106;28;20090;-66
2024/01/18 03:20:06;;;;;;;2.65;0.63;;;;;;;;;;4997018;28;20048;-66
2024/01/18 03:22:33;;;;;;;2.88;0.60;;;;;;;;;;5012743;28;20048;-64
2024/01/18 03:24:59;;;;;;;3.97;0.70;;;;;;;;;;5012773;28;20045;-64
2024/01/18 03:27:25;;;;;;;6.95;0.85;;;;;;;;;;5012747;28;21255;-64
2024/01/18 03:29:51;;;;;;;2.20;0.60;;;;;;;;;;5012379;28;20041;-64
2024/01/18 03:32:17;;;;;;;2.60;0.75;;;;;;;;;;4995964;28;20452;-64
2024/01/18 03:34:43;;;;;;;5.50;0.63;;;;;;;;;;5013097;28;20032;-64
2024/01/18 03:37:10;;;;;;;5.07;0.80;;;;;;;;;;5012753;28;20144;-64
2024/01/18 03:39:36;;;;;;;2.45;0.60;;;;;;;;;;5012934;28;20043;-64
2024/01/18 03:42:02;;;;;;;2.55;0.70;;;;;;;;;;5013337;28;20334;-64
2024/01/18 03:44:28;;;;;;;3.22;0.85;;;;;;;;;;5008739;28;20118;-64
2024/01/18 03:46:55;;;;;;;3.45;0.73;;;;;;;;;;5013465;28;20160;-65
2024/01/18 03:49:21;;;;;;;4.40;0.68;;;;;;;;;;5012887;28;20118;-64
2024/01/18 03:51:47;;;;;;;2.80;0.70;;;;;;;;;;5012328;28;20067;-64
2024/01/18 03:54:13;;;;;;;3.97;0.63;;;;;;;;;;5010166;28;20044;-65
2024/01/18 03:56:39;;;;;;;2.67;0.52;;;;;;;;;;5011433;28;20686;-64
2024/01/18 03:59:06;;;;;;;1.20;0.40;;;;;;;;;;5010090;28;20500;-64
2024/01/18 04:01:33;;;;;;;6.80;0.68;;;;;;;;;;5008049;28;20029;-65
2024/01/18 04:03:59;;;;;;;3.65;0.60;;;;;;;;;;5009646;28;20033;-64
2024/01/18 04:06:25;;;;;;;4.18;0.52;;;;;;;;;;5010745;28;20033;-65
2024/01/18 04:08:51;;;;;;;1.23;0.40;;;;;;;;;;4994664;28;20044;-65
2024/01/18 04:11:17;;;;;;;2.55;0.70;;;;;;;;;;5011200;28;20041;-64
2024/01/18 04:13:43;;;;;;;2.58;0.47;;;;;;;;;;5011044;28;20110;-65
2024/01/18 04:16:09;;;;;;;1.95;0.25;;;;;;;;;;5009116;28;20086;-64
2024/01/18 04:18:35;;;;;;;3.50;0.40;;;;;;;;;;5011653;28;20029;-64
2024/01/18 04:21:01;;;;;;;1.13;0.35;;;;;;;;;;5011265;28;20029;-64
2024/01/18 04:23:27;;;;;;;3.38;0.47;;;;;;;;;;5010502;28;20037;-64
2024/01/18 04:25:54;;;;;;;4.50;0.80;;;;;;;;;;5011173;28;20041;-64
2024/01/18 04:28:20;;;;;;;5.07;0.60;;;;;;;;;;5010899;28;20045;-65
2024/01/18 04:30:46;;;;;;;1.38;0.40;;;;;;;;;;5011744;28;20032;-65
2024/01/18 04:33:13;;;;;;;6.32;1.48;;;;;;;;;;5011216;28;20040;-64
2024/01/18 04:35:39;;;;;;;1.55;0.47;;;;;;;;;;5011997;28;20025;-65
2024/01/18 04:38:06;;;;;;;2.80;0.40;;;;;;;;;;4993816;28;20041;-64
2024/01/18 04:40:33;;;;;;;3.13;0.80;;;;;;;;;;5012556;28;20977;-65
2024/01/18 04:42:59;;;;;;;3.15;0.60;;;;;;;;;;5010264;28;20043;-64
2024/01/18 04:45:25;;;;;;;3.45;0.60;;;;;;;;;;5011084;28;20116;-64
2024/01/18 04:47:52;;;;;;;1.95;0.50;;;;;;;;;;5011621;28;20049;-65
2024/01/18 04:50:24;;;;;;;0.88;0.20;;;;;;;;;;5010976;28;20119;-64
2024/01/18 04:52:50;;;;;;;2.30;0.55;;;;;;;;;;5010330;28;20041;-64
2024/01/18 04:55:16;;;;;;;5.55;0.63;;;;;;;;;;5010557;28;20211;-64
2024/01/18 04:57:43;;;;;;;5.00;0.65;;;;;;;;;;5016111;28;20017;-64
2024/01/18 05:00:10;;;;;;;2.78;0.80;;;;;;;;;;5014534;28;20041;-64
2024/01/18 05:02:44;;;;;;;3.85;1.15;;;;;;;;;;5012337;28;20171;-65
2024/01/18 05:05:12;;;;;;;4.72;1.15;;;;;;;;;;5012396;28;21118;-65
2024/01/18 05:07:41;;;;;;;3.50;0.90;;;;;;;;;;5013756;28;20033;-65
2024/01/18 05:10:08;;;;;;;3.38;0.68;;;;;;;;;;5013326;28;20794;-64
2024/01/18 05:12:35;;;;;;;2.33;0.50;;;;;;;;;;5013117;28;20048;-65
2024/01/18 05:15:01;;;;;;;2.50;0.68;;;;;;;;;;5013758;28;20033;-65
2024/01/18 05:17:37;;;;;;;3.83;0.75;;;;;;;;;;5014983;28;20063;-64
2024/01/18 05:20:06;;;;;;;3.38;1.02;;;;;;;;;;5016083;28;20041;-65
2024/01/18 05:22:33;;;;;;;0.40;0.20;;;;;;;;;;5017010;28;20140;-65
2024/01/18 05:24:59;;;;;;;1.88;0.40;;;;;;;;;;5015014;28;20033;-64
2024/01/18 05:27:27;;;;;;;5.38;0.30;;;;;;;;;;5016680;28;20079;-65
2024/01/18 05:29:53;;;;;;;3.08;0.80;;;;;;;;;;5015166;28;20068;-64
2024/01/18 05:32:23;;;;;;;2.90;0.65;;;;;;;;;;5017163;28;20131;-64
2024/01/18 05:34:49;;;;;;;2.42;0.70;;;;;;;;;;5016614;28;20037;-65
2024/01/18 05:37:16;;;;;;;2.10;0.45;;;;;;;;;;5014647;28;20048;-65
2024/01/18 05:39:42;;;;;;;2.75;0.65;;;;;;;;;;5016804;28;20041;-64
2024/01/18 05:42:08;;;;;;;2.42;0.45;;;;;;;;;;5016722;28;20041;-65
2024/01/18 05:44:35;;;;;;;4.47;0.50;;;;;;;;;;5016574;28;20037;-65
2024/01/18 05:47:01;;;;;;;1.13;0.40;;;;;;;;;;5016312;28;20686;-65
2024/01/18 05:49:27;;;;;;;3.70;0.80;;;;;;;;;;5016587;28;20996;-65
2024/01/18 05:51:53;;;;;;;1.45;0.30;;;;;;;;;;5015537;28;20037;-65
2024/01/18 05:54:19;;;;;;;2.53;0.60;;;;;;;;;;5016457;28;20043;-64
2024/01/18 05:56:46;;;;;;;1.63;0.30;;;;;;;;;;5016969;28;20151;-64
2024/01/18 05:59:12;;;;;;;4.28;0.55;;;;;;;;;;4998413;28;20048;-64
2024/01/18 06:01:39;;;;;;;2.83;0.65;;;;;;;;;;5016844;28;20491;-64
2024/01/18 06:04:06;;;;;;;5.95;1.50;;;;;;;;;;5016511;28;20174;-64
2024/01/18 06:06:32;;;;;;;3.85;1.08;;;;;;;;;;5015590;28;20041;-65
2024/01/18 06:08:58;;;;;;;4.55;0.60;;;;;;;;;;4997742;28;20520;-65
2024/01/18 06:11:24;;;;;;;3.50;0.70;;;;;;;;;;4999041;28;20041;-65
2024/01/18 06:13:50;;;;;;;3.50;0.50;;;;;;;;;;5013063;28;20041;-65
2024/01/18 06:16:17;;;;;;;3.58;0.60;;;;;;;;;;5015302;28;20049;-65
2024/01/18 06:18:44;;;;;;;2.25;0.47;;;;;;;;;;5016858;28;20091;-65
2024/01/18 06:21:10;;;;;;;1.88;0.40;;;;;;;;;;5016587;28;20095;-65
2024/01/18 06:23:36;;;;;;;7.32;1.15;;;;;;;;;;5015955;28;21125;-65
2024/01/18 06:26:08;;;;;;;5.05;0.80;;;;;;;;;;5014197;28;21051;-64
2024/01/18 06:28:34;;;;;;;1.90;0.55;;;;;;;;;;5014370;28;20043;-65
2024/01/18 06:31:00;;;;;;;1.75;0.50;;;;;;;;;;5015102;28;20045;-65
2024/01/18 06:33:26;;;;;;;4.32;0.43;;;;;;;;;;5013458;28;20048;-65
2024/01/18 06:35:53;;;;;;;2.33;0.73;;;;;;;;;;5014819;28;20041;-65
2024/01/18 06:38:20;;;;;;;3.35;0.57;;;;;;;;;;5014493;28;21342;-65
2024/01/18 06:40:47;;;;;;;5.70;0.57;;;;;;;;;;5013380;28;20029;-65
2024/01/18 06:43:13;;;;;;;4.95;0.85;;;;;;;;;;5022516;28;21781;-66
2024/01/18 06:45:39;;;;;;;3.13;1.65;;;;;;;;;;5015824;28;21425;-66
2024/01/18 06:48:06;;;;;;;6.03;0.75;;;;;;;;;;5016192;28;20685;-66
2024/01/18 06:50:32;;;;;;;2.20;0.32;;;;;;;;;;5016517;28;20041;-66
2024/01/18 06:52:59;;;;;;;3.45;0.65;;;;;;;;;;5025525;28;20664;-66
2024/01/18 06:55:25;;;;;;;1.92;0.57;;;;;;;;;;5026130;28;20056;-66
2024/01/18 06:57:51;;;;;;;2.20;0.32;;;;;;;;;;5026821;28;20064;-66
2024/01/18 07:00:24;;;;;;;1.38;0.40;;;;;;;;;;5030834;28;20041;-66
2024/01/18 07:02:53;;;;;;;1.65;0.47;;;;;;;;;;5021679;28;20165;-66
2024/01/18 07:05:20;;;;;;;4.20;0.50;;;;;;;;;;5011842;28;20048;-66
2024/01/18 07:07:46;;;;;;;3.95;0.70;;;;;;;;;;5032045;28;20056;-66
2024/01/18 07:10:12;;;;;;;4.68;1.08;;;;;;;;;;5031183;28;20029;-66
2024/01/18 07:12:38;;;;;;;6.03;1.67;;;;;;;;;;5023826;28;20963;-66
2024/01/18 07:15:07;;;;;;;4.50;0.57;;;;;;;;;;5030983;28;20025;-66
2024/01/18 07:17:33;;;;;;;5.82;0.70;;;;;;;;;;5030752;28;20108;-66
2024/01/18 07:19:59;;;;;;;2.58;0.45;;;;;;;;;;5031595;28;20074;-66
2024/01/18 07:22:25;;;;;;;4.82;1.55;;;;;;;;;;5031354;28;20051;-66
2024/01/18 07:24:52;;;;;;;4.85;0.90;;;;;;;;;;5029181;28;20091;-66
2024/01/18 07:27:18;;;;;;;3.28;0.63;;;;;;;;;;5031344;28;20025;-66
2024/01/18 07:29:44;;;;;;;3.55;0.45;;;;;;;;;;5008134;28;20051;-66
2024/01/18 07:32:10;;;;;;;2.45;0.30;;;;;;;;;;5031225;28;20033;-66
2024/01/18 07:34:36;;;;;;;2.58;0.40;;;;;;;;;;5031865;28;20041;-66
2024/01/18 07:37:03;;;;;;;2.88;0.47;;;;;;;;;;5030774;28;20652;-66
2024/01/18 07:39:30;;;;;;;3.58;0.45;;;;;;;;;;5030386;28;20655;-66
2024/01/18 07:41:56;;;;;;;2.58;0.38;;;;;;;;;;5030607;28;20120;-66
2024/01/18 07:44:22;;;;;;;0.60;0.30;;;;;;;;;;5026842;28;20125;-66
2024/01/18 07:46:49;;;;;;;2.10;0.40;;;;;;;;;;5012570;28;20025;-66
2024/01/18 07:49:15;;;;;;;4.57;0.65;;;;;;;;;;5013503;28;20055;-66
2024/01/18 07:51:41;;;;;;;3.42;0.73;;;;;;;;;;5013426;28;20833;-66
2024/01/18 07:54:07;;;;;;;8.05;0.50;;;;;;;;;;5011922;28;20043;-66
2024/01/18 07:56:33;;;;;;;2.97;0.50;;;;;;;;;;5014797;28;20112;-66
2024/01/18 07:58:59;;;;;;;1.55;0.40;;;;;;;;;;5014204;28;20039;-66
2024/01/18 08:01:25;;;;;;;3.05;0.40;;;;;;;;;;5013165;28;20041;-66
2024/01/18 08:03:51;;;;;;;3.58;0.65;;;;;;;;;;4996409;28;20039;-66
2024/01/18 08:06:17;;;;;;;3.58;0.57;;;;;;;;;;5020113;28;20063;-67
2024/01/18 08:08:43;;;;;;;1.58;0.43;;;;;;;;;;5014814;28;20036;-66
2024/01/18 08:11:13;;;;;;;4.78;1.02;;;;;;;;;;5017409;28;20608;-66
2024/01/18 08:13:42;;;;;;;3.45;1.00;;;;;;;;;;5018699;28;20095;-66
2024/01/18 08:16:09;;;;;;;2.97;0.90;;;;;;;;;;5014312;28;20522;-66
2024/01/18 08:18:36;;;;;;;3.33;0.60;;;;;;;;;;5013649;28;21265;-66
2024/01/18 08:21:02;;;;;;;3.28;0.68;;;;;;;;;;5019679;28;20040;-66
2024/01/18 08:23:28;;;;;;;1.92;0.63;;;;;;;;;;5017094;28;20064;-66
2024/01/18 08:25:54;;;;;;;9.70;1.58;;;;;;;;;;5019903;28;20031;-66
2024/01/18 08:28:21;;;;;;;5.57;1.70;;;;;;;;;;5018974;28;21851;-66
2024/01/18 08:30:47;;;;;;;6.63;1.85;;;;;;;;;;5019971;28;20091;-66
2024/01/18 08:33:13;;;;;;;5.32;1.90;;;;;;;;;;5017782;28;20805;-66
2024/01/18 08:35:40;;;;;;;1.50;0.70;;;;;;;;;;5020984;28;21145;-66
2024/01/18 08:38:06;;;;;;;3.30;0.80;;;;;;;;;;5021483;28;20056;-66
2024/01/18 08:40:33;;;;;;;5.97;0.65;;;;;;;;;;5019848;28;20120;-66
2024/01/18 08:42:59;;;;;;;1.40;0.40;;;;;;;;;;5020107;28;20034;-66
2024/01/18 08:45:26;;;;;;;3.35;0.70;;;;;;;;;;5003214;28;20087;-66
2024/01/18 08:47:52;;;;;;;4.38;0.63;;;;;;;;;;5020434;28;20044;-66
2024/01/18 08:50:20;;;;;;;3.17;0.40;;;;;;;;;;5019263;28;20140;-66
2024/01/18 08:52:46;;;;;;;2.13;0.43;;;;;;;;;;5020741;28;20031;-66
2024/01/18 08:55:13;;;;;;;1.48;0.55;;;;;;;;;;5012949;28;20029;-66
2024/01/18 08:57:39;;;;;;;3.67;0.52;;;;;;;;;;5019952;28;20045;-66
2024/01/18 09:00:06;;;;;;;2.17;0.38;;;;;;;;;;5020885;28;20048;-66
2024/01/18 09:02:32;;;;;;;4.68;0.73;;;;;;;;;;5020454;28;20094;-66
2024/01/18 09:04:58;;;;;;;2.65;0.70;;;;;;;;;;5020797;28;20033;-66
2024/01/18 09:07:25;;;;;;;2.47;0.50;;;;;;;;;;4996873;28;20316;-66
2024/01/18 09:09:51;;;;;;;4.35;0.75;;;;;;;;;;5000186;28;20036;-66
2024/01/18 09:12:17;;;;;;;3.55;0.50;;;;;;;;;;5017295;28;20753;-66
2024/01/18 09:14:45;;;;;;;5.68;1.05;;;;;;;;;;5020488;28;20045;-66
2024/01/18 09:17:11;;;;;;;3.55;0.55;;;;;;;;;;5019588;28;20097;-66
2024/01/18 09:19:37;;;;;;;1.25;0.50;;;;;;;;;;5015764;28;20039;-66
2024/01/18 09:22:03;;;;;;;1.30;0.60;;;;;;;;;;5014911;28;20068;-66
2024/01/18 09:24:29;;;;;;;3.63;0.85;;;;;;;;;;5010939;28;21199;-66
2024/01/18 09:26:55;;;;;;;4.07;0.77;;;;;;;;;;4999531;28;20033;-66
2024/01/18 09:29:21;;;;;;;2.85;0.98;;;;;;;;;;5016689;28;20033;-66
2024/01/18 09:31:47;;;;;;;7.93;1.45;;;;;;;;;;5020094;28;20040;-66
2024/01/18 09:34:13;;;;;;;3.88;0.85;;;;;;;;;;5007890;28;20040;-66
2024/01/18 09:36:40;;;;;;;4.68;1.00;;;;;;;;;;5015916;28;20044;-66
2024/01/18 09:39:08;;;;;;;4.30;1.38;;;;;;;;;;5015008;28;20684;-65
2024/01/18 09:41:35;;;;;;;5.63;1.25;;;;;;;;;;5015225;28;20025;-65
2024/01/18 09:44:07;;;;;;;4.63;1.27;;;;;;;;;;5022588;28;20041;-66
2024/01/18 09:46:33;;;;;;;6.32;1.42;;;;;;;;;;5021715;28;20578;-66
2024/01/18 09:48:59;;;;;;;4.13;1.10;;;;;;;;;;5014309;28;20565;-65
2024/01/18 09:51:25;;;;;;;4.53;1.17;;;;;;;;;;5021027;28;20044;-65
2024/01/18 09:53:54;;;;;;;3.33;1.10;;;;;;;;;;5012641;28;20040;-65
2024/01/18 09:56:25;;;;;;;10.55;1.17;;;;;;;;;;5021648;28;20127;-66
2024/01/18 09:58:52;;;;;;;5.43;1.30;;;;;;;;;;5020673;28;20484;-66
2024/01/18 10:01:22;;;;;;;3.10;0.80;;;;;;;;;;5010807;28;20025;-65
2024/01/18 10:03:48;;;;;;;4.18;0.98;;;;;;;;;;5022365;28;20527;-65
2024/01/18 10:06:15;;;;;;;5.93;0.90;;;;;;;;;;5004200;28;20025;-65
2024/01/18 10:08:42;;;;;;;4.05;0.90;;;;;;;;;;5016800;28;20040;-65
2024/01/18 10:11:08;;;;;;;5.03;1.27;;;;;;;;;;5019439;28;20643;-65
2024/01/18 10:13:52;;;;;;;2.53;0.98;;;;;;;;;;5009008;28;20037;-65
2024/01/18 10:16:27;;;;;;;3.95;0.73;;;;;;;;;;5021630;28;20079;-65
2024/01/18 10:18:57;;;;;;;4.40;0.80;;;;;;;;;;5022591;28;20703;-65
2024/01/18 10:21:24;;;;;;;4.88;1.40;;;;;;;;;;5019379;28;20103;-65
2024/01/18 10:23:50;;;;;;;3.78;0.90;;;;;;;;;;5019443;28;20033;-66
2024/01/18 10:26:17;;;;;;;3.40;1.27;;;;;;;;;;5016010;28;20037;-66
2024/01/18 10:28:43;;;;;;;8.80;1.52;;;;;;;;;;5019321;28;20468;-66
2024/01/18 10:31:09;;;;;;;7.85;1.20;;;;;;;;;;5020124;28;20048;-68
2024/01/18 10:33:35;;;;;;;3.28;0.90;;;;;;;;;;5020132;28;20048;-66
2024/01/18 10:36:02;;;;;;;5.03;1.27;;;;;;;;;;5019919;28;20048;-66
2024/01/18 10:38:32;;;;;;;7.95;1.42;;;;;;;;;;5020527;28;20033;-66
2024/01/18 10:40:59;;;;;;;5.22;1.30;;;;;;;;;;5019590;28;20036;-66
2024/01/18 10:43:29;;;;;;;7.40;1.15;;;;;;;;;;5010813;28;20025;-66
2024/01/18 10:45:55;;;;;;;7.25;1.95;;;;;;;;;;5016659;28;20037;-66
2024/01/18 10:48:22;;;;;;;6.20;1.60;;;;;;;;;;5014458;28;20033;-66
2024/01/18 10:50:51;;;;;;;4.90;1.10;;;;;;;;;;5015710;28;20402;-66
2024/01/18 10:53:17;;;;;;;7.05;1.60;;;;;;;;;;5022524;28;20032;-66
2024/01/18 10:55:43;;;;;;;4.75;1.30;;;;;;;;;;5009136;28;20048;-65
2024/01/18 10:58:09;;;;;;;3.15;1.10;;;;;;;;;;5017399;28;20064;-65
2024/01/18 11:00:35;;;;;;;3.30;1.23;;;;;;;;;;5022005;28;20033;-66
2024/01/18 11:03:01;;;;;;;5.78;1.38;;;;;;;;;;5013825;28;20039;-66
2024/01/18 11:05:27;;;;;;;4.90;1.55;;;;;;;;;;5018948;28;20136;-66
2024/01/18 11:07:54;;;;;;;6.47;1.17;;;;;;;;;;5006216;28;20048;-66
2024/01/18 11:10:20;;;;;;;8.50;1.33;;;;;;;;;;5016138;28;20036;-66
2024/01/18 11:12:49;;;;;;;5.93;1.00;;;;;;;;;;5002343;28;20036;-66
2024/01/18 11:15:16;;;;;;;6.13;1.45;;;;;;;;;;5020040;28;20071;-66
2024/01/18 11:17:51;;;;;;;7.53;1.40;;;;;;;;;;5004576;28;20065;-66
2024/01/18 11:20:18;;;;;;;3.80;1.20;;;;;;;;;;4993265;28;20045;-66
2024/01/18 11:22:45;;;;;;;9.82;1.48;;;;;;;;;;4997896;28;20099;-66
2024/01/18 11:25:17;;;;;;;4.10;1.15;;;;;;;;;;4967723;28;20041;-66
2024/01/18 11:27:43;;;;;;;4.60;1.10;;;;;;;;;;4991862;28;20045;-66
2024/01/18 11:30:14;;;;;;;5.20;1.45;;;;;;;;;;4988007;28;20045;-66
2024/01/18 11:32:40;;;;;;;5.10;0.98;;;;;;;;;;5000720;28;20033;-66
2024/01/18 11:35:14;;;;;;;4.22;1.00;;;;;;;;;;4997831;28;20591;-66
2024/01/18 11:37:40;;;;;;;;;;;;;;;;;;4995396;28;20029;-66
2024/01/18 11:40:11;;;;;;;9.15;1.42;;;;;;;;;;4998224;28;20486;-66
2024/01/18 11:42:40;;;;;;;9.40;1.67;;;;;;;;;;4990561;28;20063;-66
2024/01/18 11:45:16;;;;;;;6.40;1.20;;;;;;;;;;4994826;28;20052;-66
2024/01/18 11:47:43;;;;;;;4.95;1.13;;;;;;;;;;4992567;28;20132;-66
2024/01/18 11:50:11;;;;;;;8.10;1.42;;;;;;;;;;4993935;28;20025;-66
2024/01/18 11:52:37;;;;;;;4.65;1.33;;;;;;;;;;4981544;28;20095;-66
2024/01/18 11:55:04;;;;;;;4.45;1.27;;;;;;;;;;4990613;28;20038;-66
2024/01/18 11:57:32;;;;;;;2.97;0.80;;;;;;;;;;4991239;28;20049;-66
2024/01/18 11:59:58;;;;;;;5.00;1.00;;;;;;;;;;4992593;28;20088;-66
2024/01/18 12:02:28;;;;;;;6.63;0.98;;;;;;;;;;4990915;28;20037;-66
2024/01/18 12:04:55;;;;;;;4.53;0.70;;;;;;;;;;4971890;28;20041;-66
2024/01/18 12:07:21;;;;;;;4.60;2.15;;;;;;;;;;4993149;28;20030;-66
2024/01/18 12:09:48;;;;;;;7.20;0.98;;;;;;;;;;4993713;28;20037;-66
2024/01/18 12:12:14;;;;;;;4.03;0.80;;;;;;;;;;4994731;28;21719;-66
2024/01/18 12:14:41;;;;;;;6.68;1.33;;;;;;;;;;4978342;28;21097;-66
2024/01/18 12:17:11;;;;;;;3.45;0.73;;;;;;;;;;5003315;28;20093;-66
2024/01/18 12:19:38;;;;;;;5.90;0.85;;;;;;;;;;5015731;28;21112;-66
2024/01/18 12:22:08;;;;;;;5.93;1.00;;;;;;;;;;5013830;28;20144;-66
2024/01/18 12:24:34;;;;;;;2.83;0.73;;;;;;;;;;4986578;28;20037;-66
2024/01/18 12:27:02;;;;;;;2.97;0.77;;;;;;;;;;5016302;28;20033;-66
2024/01/18 12:29:28;;;;;;;3.53;0.70;;;;;;;;;;5015073;28;20037;-66
2024/01/18 12:31:55;;;;;;;7.38;1.00;;;;;;;;;;5014199;28;20037;-66
2024/01/18 12:34:21;;;;;;;5.03;0.85;;;;;;;;;;5014580;28;20820;-66
2024/01/18 12:36:47;;;;;;;2.20;0.57;;;;;;;;;;5015446;28;21045;-66
2024/01/18 12:39:14;;;;;;;3.95;0.80;;;;;;;;;;5014222;28;20146;-66
2024/01/18 12:41:40;;;;;;;4.30;0.70;;;;;;;;;;5011802;28;20029;-66
2024/01/18 12:44:07;;;;;;;6.97;0.90;;;;;;;;;;5012210;28;20041;-66
2024/01/18 12:46:34;;;;;;;8.30;0.95;;;;;;;;;;5014992;28;20021;-66
2024/01/18 12:49:00;;;;;;;3.47;0.68;;;;;;;;;;5014690;28;20037;-66
2024/01/18 12:51:27;;;;;;;5.85;0.80;;;;;;;;;;5016135;28;20098;-66
2024/01/18 12:53:54;;;;;;;4.00;0.90;;;;;;;;;;5014360;28;20068;-65
2024/01/18 12:56:20;;;;;;;9.00;1.20;;;;;;;;;;5019173;28;20037;-66
2024/01/18 12:58:46;;;;;;;6.03;1.50;;;;;;;;;;5021703;28;21132;-67
2024/01/18 13:01:28;;;;;;;2.65;0.90;;;;;;;;;;5021716;28;20054;-66
2024/01/18 13:04:14;;;;;;;3.75;0.90;;;;;;;;;;5013405;28;20031;-66
2024/01/18 13:06:46;;;;;;;7.78;1.08;;;;;;;;;;5005442;28;20033;-65
2024/01/18 13:09:13;;;;;;;5.30;0.70;;;;;;;;;;5007493;28;20102;-66
2024/01/18 13:11:39;;;;;;;4.20;0.93;;;;;;;;;;5018971;28;20037;-66
2024/01/18 13:14:11;;;;;;;6.75;1.00;;;;;;;;;;5020132;28;20164;-66
2024/01/18 13:16:41;;;;;;;2.65;0.90;;;;;;;;;;5020801;28;20895;-65
2024/01/18 13:19:10;;;;;;;5.78;1.08;;;;;;;;;;5023026;28;20079;-66
2024/01/18 13:21:36;;;;;;;4.47;0.88;;;;;;;;;;5025217;28;20033;-66
2024/01/18 13:24:02;;;;;;;7.20;1.00;;;;;;;;;;5022944;28;20037;-66
2024/01/18 13:26:29;;;;;;;4.43;0.88;;;;;;;;;;5001790;28;20029;-66
2024/01/18 13:28:55;;;;;;;6.57;1.02;;;;;;;;;;5000408;28;20041;-66
2024/01/18 13:31:21;;;;;;;5.65;1.00;;;;;;;;;;5023629;28;20041;-66
2024/01/18 13:33:47;;;;;;;5.10;0.90;;;;;;;;;;5024380;28;20044;-66
2024/01/18 13:36:14;;;;;;;10.23;1.10;;;;;;;;;;5003029;28;20427;-65
2024/01/18 13:38:40;;;;;;;14.63;1.70;;;;;;;;;;5025123;28;20124;-65
2024/01/18 13:41:06;;;;;;;16.45;1.35;;;;;;;;;;5024842;28;20037;-66
2024/01/18 13:43:32;;;;;;;7.43;1.30;;;;;;;;;;5025692;28;20036;-65
2024/01/18 13:45:59;;;;;;;6.45;0.98;;;;;;;;;;5017649;28;20047;-65
2024/01/18 13:48:25;;;;;;;2.47;0.82;;;;;;;;;;5022712;28;20159;-65
2024/01/18 13:50:57;;;;;;;4.30;0.80;;;;;;;;;;5025241;28;20037;-65
2024/01/18 13:53:23;;;;;;;2.72;0.90;;;;;;;;;;5023869;28;20496;-65
2024/01/18 13:55:49;;;;;;;2.97;0.47;;;;;;;;;;5022775;28;20053;-65
2024/01/18 13:58:16;;;;;;;5.20;1.00;;;;;;;;;;5024800;28;20079;-65
2024/01/18 14:00:43;;;;;;;7.22;0.73;;;;;;;;;;5022620;28;20041;-65
2024/01/18 14:03:10;;;;;;;6.10;0.95;;;;;;;;;;5022306;28;20064;-65
2024/01/18 14:05:38;;;;;;;6.38;0.85;;;;;;;;;;5024005;28;20127;-66
2024/01/18 14:08:05;;;;;;;6.25;0.90;;;;;;;;;;5022226;28;20040;-65
2024/01/18 14:10:31;;;;;;;5.57;0.60;;;;;;;;;;5023490;28;20029;-65
2024/01/18 14:12:58;;;;;;;7.97;0.80;;;;;;;;;;5024260;28;21785;-65
2024/01/18 14:15:24;;;;;;;4.32;0.65;;;;;;;;;;5022742;28;20052;-66
2024/01/18 14:17:50;;;;;;;7.22;0.82;;;;;;;;;;5021509;28;20068;-65
2024/01/18 14:20:17;;;;;;;4.05;0.82;;;;;;;;;;5022401;28;20068;-65
2024/01/18 14:22:46;;;;;;;6.20;0.90;;;;;;;;;;5011451;28;20041;-65
2024/01/18 14:25:12;;;;;;;3.80;0.80;;;;;;;;;;5019169;28;20113;-66
2024/01/18 14:27:41;;;;;;;4.07;0.47;;;;;;;;;;5014896;28;21110;-65
2024/01/18 14:30:08;;;;;;;2.80;0.50;;;;;;;;;;5019973;28;20041;-66
2024/01/18 14:32:38;;;;;;;2.63;0.52;;;;;;;;;;5015575;28;20040;-65
2024/01/18 14:35:05;;;;;;;3.35;0.73;;;;;;;;;;5001349;28;20110;-65
2024/01/18 14:37:31;;;;;;;4.93;0.85;;;;;;;;;;5000864;28;20766;-65
2024/01/18 14:39:57;;;;;;;5.45;0.82;;;;;;;;;;5012614;28;20041;-65
2024/01/18 14:42:23;;;;;;;10.07;1.15;;;;;;;;;;5017937;28;20557;-65